Time;durP1;ratioP1;P1;durP2;ratioP2;P2;SDS_P1;SDS_P2;PMS_P1;PMS_P2;Temp;Humidity;BMP_temperature;BMP_pressure;BME280_temperature;BME280_humidity;BME280_pressure;Samples;Min_cycle;Max_cycle;Signal;HPM_P1;HPM_P2
2022/12/03 00:01:09;;;;;;;32.10;15.73;;;;;;;;;;5094670;28;20081;-84
2022/12/03 00:03:54;;;;;;;36.37;15.40;;;;;;;;;;5080429;28;20074;-84
2022/12/03 00:06:38;;;;;;;32.67;16.57;;;;;;;;;;5094180;28;20050;-84
2022/12/03 00:09:23;;;;;;;35.17;16.00;;;;;;;;;;5095832;28;20039;-84
2022/12/03 00:12:07;;;;;;;32.53;14.73;;;;;;;;;;5095888;28;20043;-83
2022/12/03 00:14:52;;;;;;;32.00;15.57;;;;;;;;;;5080197;28;20101;-84
2022/12/03 00:17:37;;;;;;;33.40;14.67;;;;;;;;;;5079619;28;20059;-84
2022/12/03 00:20:23;;;;;;;33.47;15.40;;;3.50;99.90;;;;;;5095411;28;20035;-83
2022/12/03 00:23:07;;;;;;;29.03;14.57;;;;;;;;;;5095487;28;20039;-84
2022/12/03 00:25:52;;;;;;;30.17;15.77;;;;;;;;;;5095384;28;20054;-84
2022/12/03 00:28:36;;;;;;;26.93;14.00;;;;;;;;;;5079593;28;20027;-84
2022/12/03 00:31:22;;;;;;;27.53;14.17;;;;;;;;;;5108780;28;20066;-84
2022/12/03 00:34:06;;;;;;;31.30;15.17;;;;;;;;;;5094163;28;20051;-84
2022/12/03 00:36:51;;;;;;;33.40;15.37;;;;;;;;;;5079333;28;20035;-84
2022/12/03 00:39:35;;;;;;;31.27;15.13;;;;;;;;;;5079514;28;20039;-85
2022/12/03 00:42:20;;;;;;;32.67;16.40;;;;;;;;;;5108382;28;20046;-84
2022/12/03 00:45:04;;;;;;;30.60;14.33;;;3.70;99.90;;;;;;5079652;28;20118;-84
2022/12/03 00:47:49;;;;;;;28.73;14.47;;;;;;;;;;5078994;28;20070;-84
2022/12/03 00:50:34;;;;;;;30.03;14.23;;;;;;;;;;5094601;28;20074;-84
2022/12/03 00:53:18;;;;;;;29.93;14.50;;;;;;;;;;5079673;28;20054;-84
2022/12/03 00:56:03;;;;;;;30.57;14.77;;;;;;;;;;5094752;28;20593;-84
2022/12/03 00:58:48;;;;;;;31.20;15.90;;;;;;;;;;5094389;28;20043;-84
2022/12/03 01:01:33;;;;;;;29.40;15.63;;;;;;;;;;5078948;28;20086;-87
2022/12/03 01:04:17;;;;;;;29.43;15.53;;;;;;;;;;5079088;28;20089;-84
2022/12/03 01:07:02;;;;;;;29.33;14.03;;;;;;;;;;5079368;28;20487;-84
2022/12/03 01:09:47;;;;;;;29.23;14.83;;;;;;;;;;5078736;28;20050;-84
2022/12/03 01:12:31;;;;;;;36.43;16.60;;;;;;;;;;5094641;28;20059;-84
2022/12/03 01:15:16;;;;;;;34.67;15.93;;;;;;;;;;5094348;28;20038;-84
2022/12/03 01:18:01;;;;;;;27.80;15.77;;;;;;;;;;5092439;28;20439;-84
2022/12/03 01:20:46;;;;;;;28.93;14.63;;;;;;;;;;5107200;28;20043;-84
2022/12/03 01:23:31;;;;;;;30.50;14.60;;;;;;;;;;5094216;28;20067;-84
2022/12/03 01:26:15;;;;;;;28.53;14.03;;;;;;;;;;5107611;28;20503;-84
2022/12/03 01:29:00;;;;;;;24.37;13.83;;;;;;;;;;5107129;28;20178;-84
2022/12/03 01:34:52;;;;;;;26.80;14.60;;;4.00;99.90;;;;;;5104612;28;20050;-84
2022/12/03 01:37:36;;;;;;;28.90;14.10;;;;;;;;;;5107352;28;20039;-84
2022/12/03 01:40:21;;;;;;;28.33;14.67;;;4.00;99.90;;;;;;5078604;28;20123;-84
2022/12/03 01:43:06;;;;;;;23.60;12.47;;;;;;;;;;5092776;28;20085;-84
2022/12/03 01:45:50;;;;;;;24.93;15.10;;;;;;;;;;5078125;28;20093;-84
2022/12/03 01:48:36;;;;;;;28.20;14.80;;;3.90;99.90;;;;;;5093889;28;20505;-84
2022/12/03 01:51:21;;;;;;;27.00;14.27;;;;;;;;;;5093716;28;20093;-84
2022/12/03 01:54:06;;;;;;;32.70;15.83;;;;;;;;;;5093764;28;20047;-84
2022/12/03 01:56:50;;;;;;;29.40;15.37;;;;;;;;;;5106628;28;20039;-84
2022/12/03 01:59:37;;;;;;;30.13;15.27;;;3.90;99.90;;;;;;5092600;28;20038;-85
2022/12/03 02:02:29;;;;;;;25.63;14.90;;;3.90;99.90;;;;;;5078260;28;20076;-84
2022/12/03 02:05:22;;;;;;;26.73;14.77;;;3.90;99.90;;;;;;5064627;28;20039;-84
2022/12/03 02:08:28;;;;;;;18.73;11.10;;;3.90;99.90;;;;;;5093404;28;20046;-84
2022/12/03 02:11:12;;;;;;;28.07;14.43;;;;;;;;;;5092178;28;20073;-84
2022/12/03 02:14:06;;;;;;;26.20;14.77;;;3.90;99.90;;;;;;5077639;28;20089;-84
2022/12/03 02:16:50;;;;;;;24.00;12.25;;;;;;;;;;5091968;28;20039;-84
2022/12/03 02:19:35;;;;;;;23.00;13.20;;;;;;;;;;5106434;28;20143;-84
2022/12/03 02:22:45;;;;;;;25.27;13.43;;;3.90;99.90;;;;;;5063403;28;20035;-84
2022/12/03 02:25:32;;;;;;;27.20;14.57;;;3.90;99.90;;;;;;5077664;28;20035;-84
2022/12/03 02:28:17;;;;;;;24.77;13.53;;;;;;;;;;5095144;28;20097;-84
2022/12/03 02:31:03;;;;;;;25.93;14.13;;;;;;;;;;5077416;28;20047;-84
2022/12/03 02:33:48;;;;;;;22.73;14.37;;;;;;;;;;5092528;28;20534;-84
2022/12/03 02:36:35;;;;;;;25.23;13.63;;;3.80;99.90;;;;;;5092968;28;20093;-84
2022/12/03 02:39:19;;;;;;;28.43;15.40;;;;;;;;;;5052049;28;20082;-84
2022/12/03 02:45:13;;;;;;;24.52;13.90;;;3.70;99.90;;;;;;5092253;28;20130;-85
2022/12/03 02:48:08;;;;;;;29.17;14.77;;;3.80;99.90;;;;;;5077201;28;20122;-84
2022/12/03 02:50:56;;;;;;;26.90;14.73;;;3.70;99.90;;;;;;5092292;28;20089;-84
2022/12/03 02:53:43;;;;;;;26.43;14.53;;;3.70;99.90;;;;;;5077411;28;20043;-84
2022/12/03 02:56:30;;;;;;;25.93;14.60;;;3.70;99.90;;;;;;5081560;28;20043;-84
2022/12/03 02:59:14;;;;;;;23.50;12.73;;;;;;;;;;5077288;28;20031;-84
2022/12/03 03:01:59;;;;;;;26.33;14.80;;;;;;;;;;5076919;28;20503;-84
2022/12/03 03:04:44;;;;;;;29.33;15.00;;;;;;;;;;5092648;28;20039;-84
2022/12/03 03:07:29;;;;;;;26.37;15.37;;;;;;;;;;5092505;28;20043;-84
2022/12/03 03:10:15;;;;;;;28.37;15.57;;;3.60;99.90;;;;;;5077032;28;20491;-84
2022/12/03 03:13:02;;;;;;;27.63;15.27;;;3.60;99.90;;;;;;5076788;28;20082;-84
2022/12/03 03:15:47;;;;;;;28.27;15.23;;;;;;;;;;5063226;28;20055;-84
2022/12/03 03:18:33;;;;;;;26.77;14.50;;;3.60;99.90;;;;;;5076994;28;20133;-84
2022/12/03 03:21:18;;;;;;;26.87;15.43;;;3.60;99.90;;;;;;5092430;28;20058;-84
2022/12/03 03:24:03;;;;;;;25.00;15.53;;;3.60;99.90;;;;;;5076739;28;20414;-84
2022/12/03 03:26:49;;;;;;;25.27;14.10;;;3.60;99.90;;;;;;5092595;28;20090;-84
2022/12/03 03:29:34;;;;;;;27.40;15.43;;;3.60;99.90;;;;;;5080787;28;20082;-84
2022/12/03 03:32:19;;;;;;;25.83;14.30;;;;;;;;;;5081189;28;20082;-84
2022/12/03 03:35:04;;;;;;;25.00;14.70;;;3.70;99.90;;;;;;5080637;28;20075;-84
2022/12/03 03:37:49;;;;;;;28.10;15.43;;;;;;;;;;5081138;28;20388;-84
2022/12/03 03:40:33;;;;;;;24.10;13.33;;;;;;;;;;5096533;28;20054;-83
2022/12/03 03:43:20;;;;;;;25.30;13.53;;;3.60;99.90;;;;;;5080571;28;20097;-84
2022/12/03 03:46:05;;;;;;;22.63;13.03;;;;;;;;;;5080829;28;20054;-84
2022/12/03 03:48:49;;;;;;;23.20;14.37;;;;;;;;;;5080725;28;20407;-84
2022/12/03 03:51:35;;;;;;;25.30;15.30;;;3.60;99.90;;;;;;5080811;28;20059;-84
2022/12/03 03:54:20;;;;;;;25.30;14.20;;;;;;;;;;5080804;28;20449;-83
2022/12/03 03:57:04;;;;;;;24.40;14.53;;;;;;;;;;5095587;28;20080;-84
2022/12/03 03:59:49;;;;;;;25.93;13.47;;;;;;;;;;5080706;28;20040;-84
2022/12/03 04:02:34;;;;;;;24.03;14.60;;;;;;;;;;5080630;28;20051;-84
2022/12/03 04:05:20;;;;;;;21.97;13.27;;;3.60;99.90;;;;;;5095251;28;20046;-84
2022/12/03 04:08:05;;;;;;;26.13;14.30;;;;;;;;;;5095506;28;20043;-84
2022/12/03 04:13:53;;;;;;;25.93;14.40;;;;;;;;;;5095677;28;20074;-84
2022/12/03 04:16:37;;;;;;;26.10;14.10;;;;;;;;;;5080560;28;20066;-84
2022/12/03 04:19:22;;;;;;;27.10;15.13;;;;;;;;;;5065980;28;20082;-84
2022/12/03 04:37:24;;;;;;;25.37;12.93;;;;;;;;;;5083743;28;20507;-84
2022/12/03 04:40:59;;;;;;;27.27;14.67;;;3.90;99.90;;;;;;5093759;28;20761;-84
2022/12/03 04:43:13;;;;;;;25.15;14.32;;;;;;;;;;5094486;28;20396;-84
2022/12/03 04:45:58;;;;;;;25.50;13.87;;;;;;;;;;5095182;28;20105;-84
2022/12/03 04:48:43;;;;;;;22.73;13.70;;;;;;;;;;5094967;28;20443;-83
2022/12/03 04:51:28;;;;;;;24.07;13.40;;;;;;;;;;5065704;28;20102;-84
2022/12/03 04:54:13;;;;;;;25.40;14.87;;;;;;;;;;5079264;28;20063;-84
2022/12/03 04:56:57;;;;;;;26.07;14.03;;;;;;;;;;5094755;28;20035;-84
2022/12/03 04:59:42;;;;;;;24.90;14.07;;;;;;;;;;5094976;28;20499;-83
2022/12/03 05:02:26;;;;;;;29.13;14.63;;;;;;;;;;5078988;28;20438;-84
2022/12/03 05:05:10;;;;;;;26.50;15.23;;;;;;;;;;5079009;28;20050;-84
2022/12/03 05:07:55;;;;;;;26.33;14.67;;;;;;;;;;5079564;28;20074;-84
2022/12/03 05:10:39;;;;;;;33.07;14.33;;;;;;;;;;5094466;28;20471;-83
2022/12/03 05:13:24;;;;;;;26.63;13.73;;;;;;;;;;5078928;28;20109;-84
2022/12/03 05:16:08;;;;;;;26.73;13.87;;;;;;;;;;5093942;28;20495;-84
2022/12/03 05:18:53;;;;;;;25.93;14.30;;;;;;;;;;5065030;28;20055;-84
2022/12/03 05:21:37;;;;;;;26.20;14.87;;;;;;;;;;5079088;28;20047;-84
2022/12/03 05:24:21;;;;;;;29.70;14.70;;;;;;;;;;5093711;28;20075;-83
2022/12/03 05:27:06;;;;;;;33.30;15.33;;;;;;;;;;5079008;28;20062;-83
2022/12/03 05:29:51;;;;;;;25.27;14.30;;;;;;;;;;5078802;28;20043;-83
2022/12/03 05:32:35;;;;;;;27.07;14.27;;;;;;;;;;5078835;28;20094;-83
2022/12/03 05:35:20;;;;;;;26.40;14.17;;;;;;;;;;5078388;28;20472;-84
2022/12/03 05:38:04;;;;;;;25.93;15.73;;;;;;;;;;5078659;28;20166;-84
2022/12/03 05:40:49;;;;;;;26.13;14.17;;;;;;;;;;5064736;28;20043;-84
2022/12/03 05:43:33;;;;;;;25.00;13.73;;;;;;;;;;5094057;28;20483;-84
2022/12/03 05:46:18;;;;;;;27.43;15.70;;;;;;;;;;5078245;28;20058;-83
2022/12/03 05:49:03;;;;;;;30.20;15.83;;;;;;;;;;5078709;28;20079;-83
2022/12/03 05:51:47;;;;;;;30.80;15.43;;;;;;;;;;5093764;28;20043;-83
2022/12/03 05:54:32;;;;;;;29.43;14.83;;;;;;;;;;5093337;28;20051;-84
2022/12/03 05:57:16;;;;;;;29.53;16.57;;;;;;;;;;5077906;28;20043;-84
2022/12/03 06:00:01;;;;;;;29.83;16.47;;;;;;;;;;5078454;28;20031;-84
2022/12/03 06:02:46;;;;;;;28.07;15.60;;;;;;;;;;5093676;28;20084;-83
2022/12/03 06:05:31;;;;;;;25.97;15.33;;;;;;;;;;5077552;28;20039;-83
2022/12/03 06:08:15;;;;;;;26.63;14.70;;;;;;;;;;5077848;28;20450;-84
2022/12/03 06:10:59;;;;;;;26.07;15.03;;;;;;;;;;5078202;28;20038;-83
2022/12/03 06:13:44;;;;;;;30.97;14.83;;;;;;;;;;5063910;28;20124;-85
2022/12/03 06:16:28;;;;;;;29.30;14.83;;;;;;;;;;5063564;28;20089;-84
2022/12/03 06:19:13;;;;;;;29.17;15.30;;;;;;;;;;5077637;28;20166;-86
2022/12/03 06:21:58;;;;;;;29.13;15.53;;;;;;;;;;5093287;28;20031;-84
2022/12/03 06:24:42;;;;;;;28.80;15.47;;;;;;;;;;5077784;28;20516;-84
2022/12/03 06:27:27;;;;;;;28.63;15.17;;;;;;;;;;5092640;28;20115;-84
2022/12/03 06:30:12;;;;;;;29.33;14.67;;;3.20;99.90;;;;;;5093037;28;20074;-84
2022/12/03 06:32:57;;;;;;;30.63;15.23;;;;;;;;;;5078008;28;20046;-84
2022/12/03 06:35:41;;;;;;;25.03;13.10;;;;;;;;;;5077789;28;20043;-84
2022/12/03 06:38:26;;;;;;;29.23;14.17;;;;;;;;;;5077204;28;20035;-84
2022/12/03 06:41:10;;;;;;;30.37;15.80;;;;;;;;;;5077737;28;20066;-83
2022/12/03 06:43:55;;;;;;;27.23;14.83;;;;;;;;;;5077531;28;20043;-83
2022/12/03 06:46:39;;;;;;;31.63;14.43;;;;;;;;;;5062898;28;20051;-83
2022/12/03 06:49:24;;;;;;;28.57;14.23;;;;;;;;;;5077079;28;20039;-83
2022/12/03 06:52:09;;;;;;;28.70;14.03;;;;;;;;;;5063343;28;20052;-83
2022/12/03 06:54:53;;;;;;;30.67;16.27;;;;;;;;;;5093061;28;20078;-83
2022/12/03 06:57:37;;;;;;;28.73;15.33;;;;;;;;;;5092320;28;20081;-83
2022/12/03 07:00:22;;;;;;;31.60;15.37;;;;;;;;;;5092245;28;20137;-83
2022/12/03 07:03:07;;;;;;;29.63;15.33;;;;;;;;;;5092363;28;20039;-84
2022/12/03 07:05:51;;;;;;;28.17;14.70;;;;;;;;;;5077257;28;20046;-83
2022/12/03 07:08:36;;;;;;;27.43;14.57;;;;;;;;;;5076968;28;20039;-84
2022/12/03 07:11:38;;;;;;;27.97;13.87;;;;;;;;;;5092391;28;20166;-85
2022/12/03 07:14:23;;;;;;;32.17;15.27;;;;;;;;;;5092016;28;20042;-84
2022/12/03 07:17:08;;;;;;;28.77;15.00;;;;;;;;;;5077296;28;20054;-83
2022/12/03 07:19:52;;;;;;;28.13;15.23;;;;;;;;;;5077253;28;20097;-84
2022/12/03 07:22:37;;;;;;;28.93;15.87;;;;;;;;;;5076644;28;20118;-83
2022/12/03 07:25:21;;;;;;;27.97;14.67;;;;;;;;;;5077261;28;20043;-84
2022/12/03 07:28:06;;;;;;;30.50;15.17;;;;;;;;;;5077321;28;20173;-83
2022/12/03 07:30:50;;;;;;;26.20;14.47;;;;;;;;;;5092473;28;20043;-83
2022/12/03 07:33:35;;;;;;;32.43;15.53;;;;;;;;;;5076578;28;20027;-83
2022/12/03 07:36:19;;;;;;;32.40;17.03;;;;;;;;;;5092245;28;20055;-84
2022/12/03 07:39:04;;;;;;;27.67;14.63;;;;;;;;;;5092361;28;20070;-84
2022/12/03 07:41:49;;;;;;;28.83;14.80;;;;;;;;;;5076616;28;20082;-83
2022/12/03 07:44:33;;;;;;;33.57;16.20;;;;;;;;;;5091829;28;20046;-85
2022/12/03 07:47:18;;;;;;;30.17;15.97;;;;;;;;;;5092404;28;20046;-83
2022/12/03 07:50:02;;;;;;;32.33;15.97;;;;;;;;;;5076960;28;20061;-84
2022/12/03 07:52:47;;;;;;;28.93;15.53;;;;;;;;;;5076508;28;20093;-84
2022/12/03 07:55:31;;;;;;;29.47;15.43;;;;;;;;;;5091634;28;20035;-83
2022/12/03 07:58:16;;;;;;;32.70;15.53;;;;;;;;;;5092285;28;20097;-83
2022/12/03 08:01:01;;;;;;;29.97;15.97;;;;;;;;;;5076936;28;20062;-84
2022/12/03 08:03:46;;;;;;;30.67;16.33;;;;;;;;;;5091441;28;20042;-83
2022/12/03 08:06:30;;;;;;;29.07;16.07;;;;;;;;;;5076394;28;20043;-83
2022/12/03 08:09:14;;;;;;;30.97;15.57;;;;;;;;;;5076716;28;20058;-83
2022/12/03 08:12:05;;;;;;;30.30;17.17;;;2.70;99.90;;;;;;5077028;28;20102;-83
2022/12/03 08:14:50;;;;;;;31.67;16.00;;;;;;;;;;5077408;28;20504;-83
2022/12/03 08:17:35;;;;;;;34.40;16.27;;;;;;;;;;5094801;28;20460;-84
2022/12/03 08:20:22;;;;;;;29.20;15.93;;;2.70;99.90;;;;;;5095758;28;20063;-84
2022/12/03 08:23:15;;;;;;;35.37;15.83;;;2.60;99.90;;;;;;5080219;28;20038;-83
2022/12/03 08:26:01;;;;;;;31.33;17.37;;;;;;;;;;5095607;28;20137;-83
2022/12/03 08:28:45;;;;;;;32.57;16.00;;;;;;;;;;5079488;28;20507;-83
2022/12/03 08:31:31;;;;;;;31.83;16.20;;;;;;;;;;5080004;28;20039;-83
2022/12/03 08:34:16;;;;;;;29.43;15.73;;;;;;;;;;5080268;28;20089;-83
2022/12/03 08:37:08;;;;;;;33.73;16.50;;;2.50;99.90;;;;;;5079847;28;20093;-83
2022/12/03 08:39:54;;;;;;;31.37;15.27;;;2.50;99.90;;;;;;5079439;28;20038;-83
2022/12/03 08:42:41;;;;;;;30.40;15.57;;;;;;;;;;5094807;28;20036;-84
2022/12/03 08:45:29;;;;;;;35.80;17.10;;;2.50;99.90;;;;;;5094911;28;20035;-83
2022/12/03 08:48:13;;;;;;;31.13;15.03;;;;;;;;;;5079611;28;20084;-84
2022/12/03 08:51:02;;;;;;;36.47;16.83;;;2.50;99.90;;;;;;5094596;28;20035;-83
2022/12/03 08:53:52;;;;;;;29.97;15.60;;;2.40;99.90;;;;;;5094383;28;20047;-84
2022/12/03 08:56:36;;;;;;;34.97;18.03;;;;;;;;;;5079113;28;20039;-84
2022/12/03 08:59:30;;;;;;;32.23;16.47;;;2.40;99.90;;;;;;5065489;28;20077;-84
2022/12/03 09:02:27;;;;;;;35.03;16.58;;;2.30;99.90;;;;;;5094721;28;20062;-84
2022/12/03 09:05:18;;;;;;;34.07;16.17;;;2.40;99.90;;;;;;5094810;28;20162;-83
2022/12/03 09:08:03;;;;;;;32.83;16.33;;;;;;;;;;5094831;28;20093;-84
2022/12/03 09:10:47;;;;;;;32.97;16.07;;;;;;;;;;5078844;28;20115;-84
2022/12/03 09:13:32;;;;;;;34.57;16.70;;;;;;;;;;5065118;28;20089;-83
2022/12/03 09:16:18;;;;;;;33.57;15.43;;;;;;;;;;5079433;28;20392;-83
2022/12/03 09:19:03;;;;;;;33.33;17.17;;;;;;;;;;5072954;28;20063;-83
2022/12/03 09:21:48;;;;;;;35.30;16.83;;;;;;;;;;5072761;28;20086;-84
2022/12/03 09:24:32;;;;;;;32.50;17.13;;;;;;;;;;5073913;28;20046;-83
2022/12/03 09:27:17;;;;;;;32.73;16.83;;;;;;;;;;5072894;28;20048;-83
2022/12/03 09:30:02;;;;;;;34.70;16.93;;;;;;;;;;5072567;28;20035;-83
2022/12/03 09:32:47;;;;;;;36.23;18.67;;;;;;;;;;5058510;28;20047;-84
2022/12/03 09:35:31;;;;;;;33.77;17.77;;;;;;;;;;5058808;28;20124;-83
2022/12/03 09:38:16;;;;;;;34.33;18.80;;;;;;;;;;5058717;28;20083;-84
2022/12/03 09:41:00;;;;;;;32.77;18.40;;;;;;;;;;5073427;28;20119;-84
2022/12/03 09:43:45;;;;;;;33.47;16.83;;;;;;;;;;5072077;28;20051;-84
2022/12/03 09:46:30;;;;;;;39.50;18.70;;;;;;;;;;5072643;28;20396;-84
2022/12/03 09:49:17;;;;;;;38.03;17.50;;;2.40;99.90;;;;;;5073809;28;20039;-84
2022/12/03 09:52:03;;;;;;;37.47;17.83;;;2.40;99.90;;;;;;5073034;28;20689;-84
2022/12/03 09:54:47;;;;;;;37.93;19.07;;;;;;;;;;5072054;28;20442;-84
2022/12/03 09:57:32;;;;;;;35.63;19.00;;;;;;;;;;5073527;28;20416;-83
2022/12/03 10:00:25;;;;;;;34.83;17.50;;;2.40;99.90;;;;;;5058446;28;20557;-84
2022/12/03 10:03:13;;;;;;;34.85;17.05;;;2.40;99.90;;;;;;5073996;28;20031;-84
2022/12/03 10:05:58;;;;;;;40.53;19.43;;;;;;;;;;5072992;28;20043;-83
2022/12/03 10:08:47;;;;;;;35.60;17.50;;;2.40;99.90;;;;;;5072003;28;20051;-83
2022/12/03 10:11:34;;;;;;;36.90;17.33;;;2.50;99.90;;;;;;5072266;28;20063;-84
2022/12/03 10:14:19;;;;;;;39.90;18.10;;;;;;;;;;5071988;28;20040;-83
2022/12/03 10:17:04;;;;;;;38.00;16.83;;;;;;;;;;5071743;28;20067;-83
2022/12/03 10:19:49;;;;;;;43.20;19.13;;;;;;;;;;5069461;28;20071;-84
2022/12/03 10:22:36;;;;;;;34.20;17.10;;;;;;;;;;5072954;28;20047;-83
2022/12/03 10:25:22;;;;;;;37.17;17.37;;;2.50;99.90;;;;;;5073063;28;20075;-83
2022/12/03 10:28:06;;;;;;;36.77;18.67;;;;;;;;;;5071441;28;20043;-83
2022/12/03 10:30:54;;;;;;;37.33;19.13;;;;;;;;;;5071468;28;20059;-84
2022/12/03 10:33:44;;;;;;;40.47;19.70;;;2.40;99.90;;;;;;5059189;28;20048;-83
2022/12/03 10:36:29;;;;;;;47.63;19.93;;;;;;;;;;5071723;28;20097;-84
2022/12/03 10:39:15;;;;;;;44.33;20.23;;;2.40;99.90;;;;;;5072567;28;20031;-83
2022/12/03 10:42:14;;;;;;;41.20;19.77;;;2.40;99.90;;;;;;5072237;28;20066;-83
2022/12/03 10:45:22;;;;;;;39.87;20.27;;;2.40;99.90;;;;;;5071222;28;20039;-84
2022/12/03 10:48:06;;;;;;;38.83;19.33;;;;;;;;;;5071234;28;20090;-84
2022/12/03 10:51:00;;;;;;;37.83;18.67;;;2.40;99.90;;;;;;5071329;28;20043;-84
2022/12/03 10:53:44;;;;;;;39.00;18.57;;;;;;;;;;5072504;28;20035;-83
2022/12/03 10:56:29;;;;;;;42.43;19.73;;;;;;;;;;5057607;28;20111;-84
2022/12/03 10:59:20;;;;;;;41.83;20.60;;;2.40;99.90;;;;;;5071135;28;20043;-83
2022/12/03 11:02:25;;;;;;;39.67;19.07;;;2.40;99.90;;;;;;5072101;28;20039;-84
2022/12/03 11:05:20;;;;;;;42.83;21.20;;;2.40;99.90;;;;;;5056852;28;20102;-83
2022/12/03 11:08:04;;;;;;;40.95;19.88;;;;;;;;;;5072136;28;20073;-83
2022/12/03 11:10:57;;;;;;;41.53;19.47;;;2.40;99.90;;;;;;5071326;28;20510;-83
2022/12/03 11:13:46;;;;;;;40.63;19.13;;;2.40;99.90;;;;;;5072538;28;20039;-84
2022/12/03 11:16:39;;;;;;;41.73;18.23;;;2.40;99.90;;;;;;5072419;28;20085;-84
2022/12/03 11:19:35;;;;;;;39.93;19.33;;;2.50;99.90;;;;;;5085043;28;20097;-84
2022/12/03 11:22:36;;;;;;;38.00;19.07;;;2.50;99.90;;;;;;5077107;28;20031;-84
2022/12/03 11:25:21;;;;;;;35.93;18.13;;;;;;;;;;5077184;28;20072;-84
2022/12/03 11:28:14;;;;;;;43.00;19.10;;;2.30;99.90;;;;;;5091949;28;20044;-83
2022/12/03 11:31:01;;;;;;;38.30;19.87;;;2.40;99.90;;;;;;5092043;28;20061;-83
2022/12/03 11:33:46;;;;;;;42.17;19.90;;;;;;;;;;5077257;28;20073;-83
2022/12/03 11:36:30;;;;;;;38.73;18.77;;;;;;;;;;5092310;28;20090;-83
2022/12/03 11:39:46;;;;;;;40.03;19.57;;;2.40;99.90;;;;;;5091982;28;20066;-82
2022/12/03 11:42:39;;;;;;;40.43;19.47;;;2.40;99.90;;;;;;5066135;28;20031;-82
2022/12/03 11:45:29;;;;;;;39.60;18.17;;;;;;;;;;5092216;28;20031;-83
2022/12/03 11:48:14;;;;;;;38.90;19.73;;;;;;;;;;5076442;28;20039;-84
2022/12/03 11:50:59;;;;;;;37.97;20.33;;;;;;;;;;5080524;28;20062;-83
2022/12/03 11:53:44;;;;;;;40.10;20.40;;;2.20;99.90;;;;;;5095972;28;20066;-82
2022/12/03 11:56:29;;;;;;;39.17;18.67;;;2.20;99.90;;;;;;5096152;28;20034;-84
2022/12/03 11:59:14;;;;;;;36.33;19.27;;;2.30;99.90;;;;;;5095810;28;20033;-83
2022/12/03 12:01:59;;;;;;;40.13;20.20;;;;;;;;;;5066307;28;20040;-85
2022/12/03 12:04:46;;;;;;;41.53;20.43;;;;;;;;;;5095846;28;20043;-83
2022/12/03 12:07:35;;;;;;;41.17;19.27;;;2.30;99.90;;;;;;5080980;28;20082;-83
2022/12/03 12:10:39;;;;;;;39.47;20.07;;;2.30;99.90;;;;;;5095564;28;20104;-82
2022/12/03 12:13:29;;;;;;;39.67;19.75;;;2.50;99.90;;;;;;5086883;28;20082;-83
2022/12/03 12:16:34;;;;;;;44.27;20.53;;;2.40;99.90;;;;;;5095341;28;20558;-83
2022/12/03 12:19:36;;;;;;;39.63;19.13;;;2.50;99.90;;;;;;5095436;28;20177;-83
2022/12/03 12:22:23;;;;;;;41.13;19.53;;;2.50;99.90;;;;;;5094987;28;20439;-82
2022/12/03 12:25:35;;;;;;;41.80;20.33;;;2.50;99.90;;;;;;5095041;28;20035;-83
2022/12/03 12:28:19;;;;;;;39.87;19.63;;;;;;;;;;5079714;28;20112;-83
2022/12/03 12:31:10;;;;;;;39.57;19.20;;;2.50;99.90;;;;;;5079753;28;20121;-84
2022/12/03 12:33:55;;;;;;;36.07;18.73;;;;;;;;;;5095540;28;20507;-83
2022/12/03 12:36:39;;;;;;;38.63;19.50;;;;;;;;;;5079916;28;20089;-83
2022/12/03 12:39:25;;;;;;;38.50;18.83;;;2.50;99.90;;;;;;5079644;28;20336;-83
2022/12/03 12:42:32;;;;;;;38.20;18.40;;;2.30;99.90;;;;;;5065403;28;20540;-83
2022/12/03 12:45:20;;;;;;;38.17;17.37;;;2.50;99.90;;;;;;5079253;28;20400;-82
2022/12/03 12:48:13;;;;;;;36.53;18.47;;;2.50;99.90;;;;;;5095137;28;20043;-82
2022/12/03 12:51:20;;;;;;;30.87;14.40;;;2.50;99.90;;;;;;5068407;28;20035;-83
2022/12/03 12:54:11;;;;;;;36.23;17.80;;;2.50;99.90;;;;;;5095058;28;20265;-83
2022/12/03 12:56:55;;;;;;;42.23;18.20;;;;;;;;;;5094990;28;20040;-83
2022/12/03 12:59:40;;;;;;;39.70;18.50;;;;;;;;;;5079471;28;20529;-83
2022/12/03 13:02:30;;;;;;;36.93;18.37;;;;;;;;;;5078574;28;20154;-84
2022/12/03 13:05:15;;;;;;;38.83;17.50;;;;;;;;;;5078880;28;20084;-84
2022/12/03 13:08:00;;;;;;;37.80;18.40;;;;;;;;;;5094878;28;20043;-83
2022/12/03 13:10:45;;;;;;;32.83;17.93;;;;;;;;;;5079262;28;20034;-84
2022/12/03 13:13:29;;;;;;;39.37;18.47;;;;;;;;;;5094204;28;20089;-83
2022/12/03 13:16:22;;;;;;;33.23;17.83;;;2.40;99.90;;;;;;5094117;28;20031;-83
2022/12/03 13:19:33;;;;;;;33.83;16.20;;;2.40;99.90;;;;;;5094131;28;20407;-83
2022/12/03 13:22:19;;;;;;;34.07;17.93;;;2.50;99.90;;;;;;5064427;28;20124;-84
2022/12/03 13:25:34;;;;;;;32.93;17.37;;;2.40;99.90;;;;;;5094356;28;20145;-84
2022/12/03 13:28:19;;;;;;;32.17;17.53;;;;;;;;;;5093964;28;20552;-83
2022/12/03 13:31:32;;;;;;;33.60;18.13;;;2.50;99.90;;;;;;5079150;28;20035;-83
2022/12/03 13:34:33;;;;;;;34.63;16.43;;;2.50;99.90;;;;;;5098389;28;20039;-84
2022/12/03 13:37:36;;;;;;;31.57;17.37;;;2.50;99.90;;;;;;5093828;28;20039;-84
2022/12/03 13:40:29;;;;;;;32.73;17.37;;;2.40;99.90;;;;;;5093639;28;20038;-84
2022/12/03 13:43:18;;;;;;;36.13;17.53;;;2.50;99.90;;;;;;5078259;28;20063;-85
2022/12/03 13:46:03;;;;;;;34.03;17.83;;;;;;;;;;5078647;28;20038;-83
2022/12/03 13:48:47;;;;;;;32.27;16.47;;;;;;;;;;5064420;28;20117;-83
2022/12/03 13:51:32;;;;;;;34.23;16.77;;;;;;;;;;5064166;28;20129;-84
2022/12/03 13:54:22;;;;;;;36.97;17.53;;;2.30;99.90;;;;;;5078091;28;20085;-83
2022/12/03 13:57:06;;;;;;;34.80;17.10;;;;;;;;;;5093773;28;20039;-83
2022/12/03 13:59:51;;;;;;;35.60;17.17;;;;;;;;;;5093940;28;20078;-83
2022/12/03 14:02:35;;;;;;;31.90;16.70;;;;;;;;;;5077983;28;20039;-83
2022/12/03 14:05:20;;;;;;;36.93;18.53;;;;;;;;;;5063623;28;20055;-84
2022/12/03 14:08:05;;;;;;;37.37;16.57;;;;;;;;;;5064396;28;20047;-84
2022/12/03 14:10:49;;;;;;;35.70;17.83;;;;;;;;;;5078032;28;20070;-83
2022/12/03 14:13:34;;;;;;;38.30;16.90;;;;;;;;;;5092155;28;20027;-83
2022/12/03 14:16:18;;;;;;;38.57;18.67;;;;;;;;;;5077792;28;20400;-85
2022/12/03 14:19:03;;;;;;;35.77;18.00;;;;;;;;;;5063638;28;20116;-83
2022/12/03 14:21:47;;;;;;;39.03;20.00;;;;;;;;;;5078055;28;20043;-83
2022/12/03 14:24:32;;;;;;;38.10;19.40;;;;;;;;;;5077249;28;20435;-84
2022/12/03 14:27:16;;;;;;;36.93;19.40;;;;;;;;;;5077982;28;20105;-83
2022/12/03 14:30:01;;;;;;;35.47;18.90;;;;;;;;;;5093082;28;20051;-83
2022/12/03 14:32:46;;;;;;;37.20;19.27;;;;;;;;;;5093151;28;20035;-83
2022/12/03 14:35:31;;;;;;;40.30;19.90;;;;;;;;;;5077366;28;20051;-84
2022/12/03 14:38:15;;;;;;;38.80;19.03;;;;;;;;;;5063596;28;20043;-83
2022/12/03 14:41:00;;;;;;;34.20;18.17;;;;;;;;;;5077933;28;20503;-83
2022/12/03 14:43:44;;;;;;;34.70;16.67;;;;;;;;;;5076981;28;20448;-83
2022/12/03 14:46:29;;;;;;;36.80;19.67;;;;;;;;;;5077386;28;20039;-83
2022/12/03 14:49:13;;;;;;;39.70;19.00;;;;;;;;;;5063555;28;20534;-83
2022/12/03 14:51:58;;;;;;;41.93;20.40;;;;;;;;;;5063584;28;20039;-83
2022/12/03 14:54:42;;;;;;;37.53;18.00;;;;;;;;;;5063133;28;20240;-84
2022/12/03 14:57:27;;;;;;;40.07;22.00;;;;;;;;;;5076950;28;20525;-83
2022/12/03 15:00:11;;;;;;;41.77;18.57;;;;;;;;;;5077527;28;20051;-84
2022/12/03 15:02:56;;;;;;;44.77;22.57;;;;;;;;;;5077410;28;20080;-83
2022/12/03 15:05:41;;;;;;;32.13;16.33;;;;;;;;;;5092115;28;20034;-83
2022/12/03 15:08:26;;;;;;;33.73;17.10;;;1.80;99.90;;;;;;5077182;28;20404;-83
2022/12/03 15:11:11;;;;;;;37.63;17.87;;;;;;;;;;5078942;28;20039;-83
2022/12/03 15:13:56;;;;;;;37.23;18.20;;;;;;;;;;5092569;28;20043;-83
2022/12/03 15:16:40;;;;;;;34.00;18.00;;;;;;;;;;5062826;28;20086;-83
2022/12/03 15:19:25;;;;;;;37.00;17.30;;;;;;;;;;5077004;28;20458;-83
2022/12/03 15:22:09;;;;;;;33.90;15.30;;;;;;;;;;5077275;28;20032;-83
2022/12/03 15:24:54;;;;;;;32.33;15.17;;;;;;;;;;5079732;28;20074;-83
2022/12/03 15:27:40;;;;;;;32.07;16.83;;;;;;;;;;5080893;28;20507;-84
2022/12/03 15:30:24;;;;;;;30.13;16.07;;;1.60;99.90;;;;;;5068537;28;20066;-83
2022/12/03 15:33:08;;;;;;;32.17;15.90;;;;;;;;;;5081302;28;20043;-83
2022/12/03 15:35:53;;;;;;;30.43;15.53;;;;;;;;;;5096762;28;20050;-83
2022/12/03 15:38:38;;;;;;;31.00;16.83;;;;;;;;;;5095872;28;20081;-84
2022/12/03 15:41:28;;;;;;;32.47;14.87;;;;;;;;;;5096546;28;20490;-83
2022/12/03 15:44:13;;;;;;;30.03;14.90;;;;;;;;;;5070134;28;20201;-83
2022/12/03 15:46:58;;;;;;;31.53;13.97;;;;;;;;;;5080775;28;20123;-84
2022/12/03 15:49:42;;;;;;;25.07;13.17;;;;;;;;;;5080530;28;20499;-83
2022/12/03 15:52:27;;;;;;;29.03;14.03;;;;;;;;;;5066833;28;20062;-83
2022/12/03 15:55:11;;;;;;;28.33;14.77;;;;;;;;;;5080762;28;20093;-84
2022/12/03 15:57:56;;;;;;;30.07;14.30;;;;;;;;;;5081026;28;20115;-83
2022/12/03 16:00:40;;;;;;;30.07;14.37;;;;;;;;;;5066127;28;20499;-83